createdAt,value
2018-12-14T00:00:18.061Z,100375.13
2018-12-14T00:00:55.121Z,100372.14
2018-12-14T00:01:33.521Z,100373.02
2018-12-14T00:02:10.328Z,100374.71
2018-12-14T00:02:45.003Z,100374.71
2018-12-14T00:03:19.589Z,100370.47
2018-12-14T00:03:54.632Z,100371.32
2018-12-14T00:04:29.747Z,100363.67
2018-12-14T00:05:05.368Z,100370.05
2018-12-14T00:05:40.010Z,100370.05
2018-12-14T00:06:14.658Z,100371.32
2018-12-14T00:06:49.296Z,100370.49
2018-12-14T00:07:23.866Z,100373.45
2018-12-14T00:07:58.476Z,100374.31
2018-12-14T00:08:33.060Z,100370.89
2018-12-14T00:09:08.189Z,100369.20
2018-12-14T00:09:42.900Z,100371.77
2018-12-14T00:10:17.542Z,100370.89
2018-12-14T00:10:52.149Z,100376.00
2018-12-14T00:11:26.795Z,100370.89
2018-12-14T00:12:01.373Z,100373.86
2018-12-14T00:12:36.391Z,100375.59
2018-12-14T00:13:11.031Z,100379.39
2018-12-14T00:13:45.687Z,100370.91
2018-12-14T00:14:20.787Z,100378.10
2018-12-14T00:14:55.399Z,100371.74
2018-12-14T00:15:30.092Z,100368.34
2018-12-14T00:16:05.233Z,100360.66
2018-12-14T00:16:39.901Z,100359.81
2018-12-14T00:17:14.668Z,100364.09
2018-12-14T00:17:49.306Z,100359.42
2018-12-14T00:18:24.154Z,100367.06
2018-12-14T00:18:58.760Z,100362.80
2018-12-14T00:19:33.837Z,100363.66
2018-12-14T00:20:09.678Z,100364.06
2018-12-14T00:20:44.403Z,100360.23
2018-12-14T00:21:19.016Z,100364.06
2018-12-14T00:21:53.660Z,100368.32
2018-12-14T00:22:28.803Z,100360.69
2018-12-14T00:23:03.356Z,100367.05
2018-12-14T00:23:38.016Z,100364.50
2018-12-14T00:24:12.715Z,100368.33
2018-12-14T00:24:47.367Z,100371.32
2018-12-14T00:25:22.986Z,100364.06
2018-12-14T00:25:57.625Z,100367.88
2018-12-14T00:26:32.253Z,100362.80
2018-12-14T00:27:07.220Z,100361.51
2018-12-14T00:27:41.864Z,100364.91
2018-12-14T00:28:16.533Z,100361.08
2018-12-14T00:28:51.187Z,100366.61
2018-12-14T00:29:25.835Z,100367.89
2018-12-14T00:30:00.769Z,100364.89
2018-12-14T00:30:35.393Z,100371.72
2018-12-14T00:31:10.309Z,100367.88
2018-12-14T00:31:45.120Z,100367.45
2018-12-14T00:32:20.319Z,100363.22
2018-12-14T00:32:55.074Z,100369.18
2018-12-14T00:33:29.738Z,100364.92
2018-12-14T00:34:04.468Z,100364.48
2018-12-14T00:34:39.160Z,100353.43
2018-12-14T00:35:14.421Z,100359.40
2018-12-14T00:35:49.356Z,100364.06
2018-12-14T00:36:23.968Z,100358.09
2018-12-14T00:36:58.576Z,100362.37
2018-12-14T00:37:33.187Z,100360.23
2018-12-14T00:38:07.887Z,100364.06
2018-12-14T00:38:42.552Z,100359.37
2018-12-14T00:39:17.196Z,100367.06
2018-12-14T00:39:51.932Z,100367.91
2018-12-14T00:40:26.637Z,100367.06
2018-12-14T00:41:01.229Z,100358.12
2018-12-14T00:41:35.861Z,100364.51
2018-12-14T00:42:11.182Z,100369.18
2018-12-14T00:42:45.945Z,100370.05
2018-12-14T00:43:20.651Z,100362.39
2018-12-14T00:43:55.242Z,100370.86
2018-12-14T00:44:29.872Z,100377.66
2018-12-14T00:45:05.494Z,100368.73
2018-12-14T00:45:40.231Z,100367.06
2018-12-14T00:46:14.916Z,100376.84
2018-12-14T00:46:49.545Z,100379.81
2018-12-14T00:47:24.153Z,100381.08
2018-12-14T00:47:58.767Z,100372.98
2018-12-14T00:48:33.399Z,100373.42
2018-12-14T00:49:08.142Z,100378.52
2018-12-14T00:49:42.890Z,100370.86
2018-12-14T00:50:17.547Z,100375.52
2018-12-14T00:50:52.270Z,100378.06
2018-12-14T00:51:26.980Z,100384.05
2018-12-14T00:52:01.599Z,100380.65
2018-12-14T00:52:36.225Z,100381.91
2018-12-14T00:53:10.972Z,100380.20
2018-12-14T00:53:45.651Z,100380.64
2018-12-14T00:54:20.283Z,100384.05
2018-12-14T00:54:54.942Z,100384.88
2018-12-14T00:55:29.558Z,100380.65
2018-12-14T00:56:04.188Z,100389.56
2018-12-14T00:56:39.445Z,100386.59
2018-12-14T00:57:14.264Z,100383.19
2018-12-14T00:57:48.893Z,100384.91
2018-12-14T00:58:23.594Z,100382.77
2018-12-14T00:58:58.330Z,100385.31
2018-12-14T00:59:33.244Z,100379.78
2018-12-14T01:00:12.243Z,100385.73
2018-12-14T01:00:46.874Z,100380.63
2018-12-14T01:01:21.590Z,100384.91
2018-12-14T01:01:56.628Z,100387.04
2018-12-14T01:02:31.312Z,100369.18
2018-12-14T01:03:06.046Z,100381.94
2018-12-14T01:03:41.161Z,100379.81
2018-12-14T01:04:16.342Z,100383.20
2018-12-14T01:04:50.952Z,100378.53
2018-12-14T01:05:25.600Z,100375.13
2018-12-14T01:06:00.215Z,100380.24
2018-12-14T01:06:34.947Z,100380.67
2018-12-14T01:07:09.721Z,100381.52
2018-12-14T01:07:44.894Z,100383.64
2018-12-14T01:08:19.529Z,100381.51
2018-12-14T01:08:54.221Z,100388.30
2018-12-14T01:09:28.956Z,100381.51
2018-12-14T01:10:04.501Z,100384.46
2018-12-14T01:10:39.705Z,100375.11
2018-12-14T01:11:14.390Z,100371.70
2018-12-14T01:11:49.140Z,100379.36
2018-12-14T01:12:23.775Z,100382.75
2018-12-14T01:12:58.417Z,100381.08
2018-12-14T01:13:33.083Z,100386.59
2018-12-14T01:14:07.721Z,100385.75
2018-12-14T01:14:42.460Z,100383.63
2018-12-14T01:15:17.143Z,100377.64
2018-12-14T01:15:51.855Z,100384.03
2018-12-14T01:16:26.723Z,100374.69
2018-12-14T01:17:01.347Z,100378.07
2018-12-14T01:18:15.952Z,100392.54
2018-12-14T01:18:50.649Z,100383.20
2018-12-14T01:19:25.407Z,100386.17
2018-12-14T01:20:00.037Z,100384.05
2018-12-14T01:20:34.692Z,100367.02
2018-12-14T01:21:09.412Z,100379.36
2018-12-14T01:21:44.126Z,100376.39
2018-12-14T01:22:18.978Z,100387.86
2018-12-14T01:22:53.556Z,100388.72
2018-12-14T01:23:28.167Z,100379.34
2018-12-14T01:24:02.803Z,100380.61
2018-12-14T01:24:37.594Z,100381.91
2018-12-14T01:25:12.262Z,100380.20
2018-12-14T01:25:47.092Z,100383.22
2018-12-14T01:26:21.758Z,100382.36
2018-12-14T01:26:56.366Z,100378.08
2018-12-14T01:27:30.957Z,100383.64
2018-12-14T01:28:05.593Z,100387.45
2018-12-14T01:28:40.275Z,100384.06
2018-12-14T01:29:16.774Z,100382.36
2018-12-14T01:29:51.369Z,100385.34
2018-12-14T01:30:25.958Z,100381.52
2018-12-14T01:31:00.560Z,100392.13
2018-12-14T01:31:35.248Z,100387.88
2018-12-14T01:32:09.914Z,100392.13
2018-12-14T01:32:44.591Z,100391.28
2018-12-14T01:33:19.211Z,100395.54
2018-12-14T01:33:53.818Z,100386.61
2018-12-14T01:34:28.420Z,100395.54
2018-12-14T01:35:03.010Z,100394.69
2018-12-14T01:35:37.687Z,100395.94
2018-12-14T01:36:12.303Z,100392.13
2018-12-14T01:36:46.985Z,100398.09
2018-12-14T01:37:21.600Z,100395.52
2018-12-14T01:37:56.209Z,100394.22
2018-12-14T01:38:31.009Z,100395.48
2018-12-14T01:39:06.969Z,100397.17
2018-12-14T01:39:41.665Z,100392.09
2018-12-14T01:40:16.306Z,100398.89
2018-12-14T01:40:50.877Z,100390.83
2018-12-14T01:41:25.502Z,100392.09
2018-12-14T01:42:04.892Z,100395.08
2018-12-14T01:42:36.903Z,100395.92
2018-12-14T01:43:12.033Z,100395.92
2018-12-14T01:43:46.776Z,100390.42
2018-12-14T01:44:21.382Z,100393.37
2018-12-14T01:44:56.015Z,100392.13
2018-12-14T01:45:30.778Z,100394.66
2018-12-14T01:46:05.353Z,100397.64
2018-12-14T01:46:40.572Z,100392.12
2018-12-14T01:47:15.647Z,100392.98
2018-12-14T01:47:50.314Z,100397.67
2018-12-14T01:48:25.104Z,100398.08
2018-12-14T01:48:59.700Z,100400.62
2018-12-14T01:49:34.325Z,100387.45
2018-12-14T01:50:08.956Z,100393.83
2018-12-14T01:50:43.647Z,100392.56
2018-12-14T01:51:18.280Z,100404.88
2018-12-14T01:51:52.882Z,100394.66
2018-12-14T01:52:27.850Z,100398.05
2018-12-14T01:53:02.533Z,100404.01
2018-12-14T01:53:37.124Z,100401.06
2018-12-14T01:54:11.772Z,100398.91
2018-12-14T01:54:46.483Z,100401.48
2018-12-14T01:55:21.192Z,100400.64
2018-12-14T01:55:55.911Z,100397.66
2018-12-14T01:56:30.491Z,100397.20
2018-12-14T01:57:05.089Z,100394.64
2018-12-14T01:57:40.228Z,100400.64
2018-12-14T01:58:14.793Z,100394.67
2018-12-14T01:58:49.366Z,100399.77
2018-12-14T01:59:24.011Z,100389.98
2018-12-14T01:59:58.624Z,100393.80
2018-12-14T02:00:33.661Z,100390.80
2018-12-14T02:01:08.266Z,100395.50
2018-12-14T02:01:43.601Z,100397.19
2018-12-14T02:02:18.219Z,100391.67
2018-12-14T02:02:52.916Z,100385.30
2018-12-14T02:03:27.649Z,100385.30
2018-12-14T02:04:02.237Z,100386.16
2018-12-14T02:04:36.873Z,100387.00
2018-12-14T02:05:12.120Z,100385.33
2018-12-14T02:05:46.782Z,100382.77
2018-12-14T02:06:21.908Z,100386.17
2018-12-14T02:06:56.525Z,100382.75
2018-12-14T02:07:31.729Z,100384.45
2018-12-14T02:08:06.367Z,100379.34
2018-12-14T02:08:41.146Z,100381.48
2018-12-14T02:09:15.786Z,100379.34
2018-12-14T02:09:50.429Z,100382.78
2018-12-14T02:10:25.060Z,100390.88
2018-12-14T02:10:59.679Z,100384.09
2018-12-14T02:11:34.262Z,100390.03
2018-12-14T02:12:11.392Z,100384.48
2018-12-14T02:12:45.514Z,100382.78
2018-12-14T02:13:20.091Z,100381.90
2018-12-14T02:13:54.674Z,100379.81
2018-12-14T02:14:29.270Z,100379.39
2018-12-14T02:15:04.968Z,100378.09
2018-12-14T02:15:39.630Z,100383.22
2018-12-14T02:16:14.283Z,100377.68
2018-12-14T02:16:48.990Z,100382.75
2018-12-14T02:17:23.729Z,100377.25
2018-12-14T02:17:58.314Z,100377.69
2018-12-14T02:18:33.003Z,100381.07
2018-12-14T02:19:07.763Z,100378.12
2018-12-14T02:19:42.466Z,100378.51
2018-12-14T02:20:17.477Z,100375.13
2018-12-14T02:20:52.074Z,100373.86
2018-12-14T02:21:26.725Z,100371.30
2018-12-14T02:22:01.311Z,100376.80
2018-12-14T02:22:35.893Z,100373.44
2018-12-14T02:23:10.565Z,100376.41
2018-12-14T02:23:45.174Z,100374.28
2018-12-14T02:24:19.757Z,100378.53
2018-12-14T02:24:54.443Z,100365.77
2018-12-14T02:25:29.023Z,100370.02
2018-12-14T02:26:03.761Z,100375.55
2018-12-14T02:26:38.594Z,100371.30
2018-12-14T02:27:13.301Z,100370.44
2018-12-14T02:27:47.906Z,100371.75
2018-12-14T02:28:22.888Z,100370.47
2018-12-14T02:28:57.503Z,100366.21
2018-12-14T02:29:32.077Z,100372.16
2018-12-14T02:30:17.999Z,100368.73
2018-12-14T02:30:52.641Z,100376.41
2018-12-14T02:31:27.249Z,100375.97
2018-12-14T02:32:02.117Z,100373.00
2018-12-14T02:32:36.710Z,100373.02
2018-12-14T02:33:11.625Z,100366.64
2018-12-14T02:33:46.290Z,100374.30
2018-12-14T02:34:20.873Z,100373.45
2018-12-14T02:34:55.477Z,100371.28
2018-12-14T02:35:30.058Z,100369.18
2018-12-14T02:36:04.689Z,100366.59
2018-12-14T02:36:39.541Z,100366.61
2018-12-14T02:37:14.319Z,100371.30
2018-12-14T02:37:49.260Z,100369.59
2018-12-14T02:38:23.843Z,100368.33
2018-12-14T02:38:58.452Z,100364.04
2018-12-14T02:39:33.074Z,100377.22
2018-12-14T02:40:08.141Z,100370.87
2018-12-14T02:40:43.340Z,100369.58
2018-12-14T02:41:17.981Z,100370.88
2018-12-14T02:41:52.561Z,100372.57
2018-12-14T02:42:27.192Z,100373.00
2018-12-14T02:43:01.747Z,100367.89
2018-12-14T02:43:36.673Z,100367.50
2018-12-14T02:44:11.309Z,100376.00
2018-12-14T02:44:46.148Z,100366.19
2018-12-14T02:45:21.523Z,100368.33
2018-12-14T02:45:56.121Z,100368.73
2018-12-14T02:46:31.175Z,100371.69
2018-12-14T02:47:06.238Z,100367.89
2018-12-14T02:47:40.981Z,100369.16
2018-12-14T02:48:15.661Z,100365.33
2018-12-14T02:48:50.259Z,100372.97
2018-12-14T02:49:24.848Z,100364.45
2018-12-14T02:49:59.458Z,100368.31
2018-12-14T02:50:34.623Z,100367.45
2018-12-14T02:51:09.258Z,100361.92
2018-12-14T02:51:44.034Z,100369.14
2018-12-14T02:52:18.658Z,100362.75
2018-12-14T02:52:53.798Z,100363.64
2018-12-14T02:53:28.436Z,100360.64
2018-12-14T02:54:03.021Z,100361.05
2018-12-14T02:54:37.900Z,100364.03
2018-12-14T02:55:13.254Z,100363.61
2018-12-14T02:55:48.024Z,100361.08
2018-12-14T02:56:22.615Z,100354.70
2018-12-14T02:56:57.252Z,100360.66
2018-12-14T02:57:31.843Z,100361.49
2018-12-14T02:58:06.446Z,100351.76
2018-12-14T02:58:41.168Z,100358.95
2018-12-14T02:59:15.783Z,100349.19
2018-12-14T02:59:50.824Z,100358.97
2018-12-14T03:00:25.409Z,100361.95
2018-12-14T03:01:00.079Z,100356.41
2018-12-14T03:01:34.688Z,100361.06
2018-12-14T03:02:09.350Z,100359.37
2018-12-14T03:02:44.321Z,100362.77
2018-12-14T03:03:19.041Z,100363.20
2018-12-14T03:03:53.640Z,100360.65
2018-12-14T03:04:28.238Z,100364.07
2018-12-14T03:05:02.909Z,100357.27
2018-12-14T03:05:37.613Z,100362.34
2018-12-14T03:06:12.365Z,100361.09
2018-12-14T03:06:47.184Z,100365.78
2018-12-14T03:07:21.770Z,100363.64
2018-12-14T03:07:56.360Z,100360.66
2018-12-14T03:08:30.946Z,100366.17
2018-12-14T03:09:07.119Z,100364.50
2018-12-14T03:09:41.792Z,100369.14
2018-12-14T03:10:16.514Z,100368.28
2018-12-14T03:10:51.085Z,100365.31
2018-12-14T03:11:25.670Z,100365.31
2018-12-14T03:12:00.259Z,100371.25
2018-12-14T03:12:35.216Z,100372.53
2018-12-14T03:13:09.855Z,100371.69
2018-12-14T03:13:44.979Z,100368.70
2018-12-14T03:14:19.729Z,100368.73
2018-12-14T03:14:54.419Z,100371.69
2018-12-14T03:15:29.119Z,100374.69
2018-12-14T03:16:04.166Z,100372.97
2018-12-14T03:16:38.765Z,100377.64
2018-12-14T03:17:13.720Z,100370.44
2018-12-14T03:17:48.338Z,100375.55
2018-12-14T03:18:22.983Z,100372.14
2018-12-14T03:18:57.648Z,100377.64
2018-12-14T03:19:32.249Z,100377.66
2018-12-14T03:20:08.324Z,100375.09
2018-12-14T03:20:43.014Z,100377.68
2018-12-14T03:21:17.713Z,100378.52
2018-12-14T03:21:52.284Z,100377.64
2018-12-14T03:22:27.216Z,100377.22
2018-12-14T03:23:01.793Z,100375.10
2018-12-14T03:23:36.368Z,100372.96
2018-12-14T03:24:11.216Z,100371.71
2018-12-14T03:24:46.180Z,100380.62
2018-12-14T03:25:20.805Z,100380.62
2018-12-14T03:25:55.747Z,100379.78
2018-12-14T03:26:30.360Z,100384.44
2018-12-14T03:27:05.412Z,100378.91
2018-12-14T03:27:40.148Z,100378.48
2018-12-14T03:28:14.787Z,100373.39
2018-12-14T03:28:49.472Z,100372.12
2018-12-14T03:29:24.033Z,100368.72
2018-12-14T03:29:58.648Z,100374.23
2018-12-14T03:30:33.252Z,100377.23
2018-12-14T03:31:07.880Z,100373.39
2018-12-14T03:31:42.792Z,100378.08
2018-12-14T03:32:17.454Z,100374.25
2018-12-14T03:32:52.363Z,100372.98
2018-12-14T03:33:27.214Z,100374.25
2018-12-14T03:34:02.069Z,100370.02
2018-12-14T03:34:36.623Z,100368.28
2018-12-14T03:35:11.333Z,100366.15
2018-12-14T03:35:46.099Z,100373.39
2018-12-14T03:36:20.685Z,100364.89
2018-12-14T03:36:55.271Z,100367.44
2018-12-14T03:37:29.862Z,100373.86
2018-12-14T03:38:04.436Z,100362.83
2018-12-14T03:38:39.094Z,100371.28
2018-12-14T03:39:14.201Z,100372.56
2018-12-14T03:39:48.875Z,100376.39
2018-12-14T03:40:23.908Z,100373.81
2018-12-14T03:40:58.568Z,100372.16
2018-12-14T03:41:33.619Z,100367.87
2018-12-14T03:42:09.393Z,100369.99
2018-12-14T03:42:44.151Z,100376.36
2018-12-14T03:43:19.031Z,100369.15
2018-12-14T03:43:53.626Z,100363.18
2018-12-14T03:44:28.605Z,100367.45
2018-12-14T03:45:03.681Z,100369.97
2018-12-14T03:45:38.649Z,100367.45
2018-12-14T03:46:13.505Z,100368.70
2018-12-14T03:46:48.570Z,100372.55
2018-12-14T03:47:23.177Z,100365.75
2018-12-14T03:47:57.767Z,100362.34
2018-12-14T03:48:32.460Z,100370.02
2018-12-14T03:49:07.070Z,100370.84
2018-12-14T03:49:41.733Z,100367.02
2018-12-14T03:50:16.418Z,100374.67
2018-12-14T03:50:51.143Z,100371.71
2018-12-14T03:51:28.738Z,100370.87
2018-12-14T03:52:03.382Z,100368.31
2018-12-14T03:52:37.983Z,100371.28
2018-12-14T03:53:12.686Z,100366.59
2018-12-14T03:53:47.391Z,100369.18
2018-12-14T03:54:21.979Z,100367.91
2018-12-14T03:54:56.683Z,100371.72
2018-12-14T03:55:31.676Z,100369.57
2018-12-14T03:56:06.297Z,100373.00
2018-12-14T03:56:41.358Z,100366.61
2018-12-14T03:57:16.042Z,100373.41
2018-12-14T03:57:50.714Z,100378.12
2018-12-14T03:58:25.445Z,100368.31
2018-12-14T03:59:00.062Z,100372.16
2018-12-14T03:59:34.968Z,100373.39
2018-12-14T04:00:11.812Z,100373.84
2018-12-14T04:00:46.858Z,100377.65
2018-12-14T04:01:21.907Z,100372.55
2018-12-14T04:01:56.509Z,100375.53
2018-12-14T04:02:31.283Z,100379.34
2018-12-14T04:03:06.268Z,100380.61
2018-12-14T04:03:41.385Z,100376.81
2018-12-14T04:04:16.105Z,100374.67
2018-12-14T04:04:50.745Z,100370.84
2018-12-14T04:05:25.716Z,100326.65
2018-12-14T04:06:00.334Z,100373.42
2018-12-14T04:06:34.940Z,100373.00
2018-12-14T04:07:09.609Z,100375.94
2018-12-14T04:07:44.240Z,100370.41
2018-12-14T04:08:18.889Z,100369.99
2018-12-14T04:08:53.513Z,100370.87
2018-12-14T04:09:28.105Z,100370.02
2018-12-14T04:10:03.200Z,100370.86
2018-12-14T04:10:37.849Z,100369.17
2018-12-14T04:11:12.741Z,100366.63
2018-12-14T04:11:47.552Z,100361.11
2018-12-14T04:12:22.294Z,100315.16
2018-12-14T04:12:57.368Z,100370.86
2018-12-14T04:13:32.389Z,100361.06
2018-12-14T04:14:07.598Z,100366.60
2018-12-14T04:14:42.707Z,100368.30
2018-12-14T04:15:17.710Z,100372.54
2018-12-14T04:15:52.309Z,100372.53
2018-12-14T04:16:26.991Z,100374.68
2018-12-14T04:17:01.601Z,100364.48
2018-12-14T04:17:36.345Z,100371.70
2018-12-14T04:18:11.210Z,100369.16
2018-12-14T04:18:46.061Z,100366.59
2018-12-14T04:19:21.125Z,100372.12
2018-12-14T04:19:55.844Z,100369.13
2018-12-14T04:20:30.630Z,100363.61
2018-12-14T04:21:06.237Z,100370.41
2018-12-14T04:21:40.902Z,100364.44
2018-12-14T04:22:15.575Z,100369.55
2018-12-14T04:22:50.206Z,100367.46
2018-12-14T04:23:24.881Z,100371.30
2018-12-14T04:23:59.635Z,100357.25
2018-12-14T04:24:34.240Z,100363.20
2018-12-14T04:25:09.024Z,100368.31
2018-12-14T04:25:43.682Z,100365.77
2018-12-14T04:26:18.246Z,100370.00
2018-12-14T04:26:52.915Z,100367.02
2018-12-14T04:27:27.521Z,100365.31
2018-12-14T04:28:02.165Z,100370.87
2018-12-14T04:28:37.186Z,100371.68
2018-12-14T04:29:11.900Z,100364.45
2018-12-14T04:29:46.646Z,100366.15
2018-12-14T04:30:21.288Z,100364.48
2018-12-14T04:30:55.893Z,100368.30
2018-12-14T04:31:30.551Z,100369.98
2018-12-14T04:32:05.278Z,100370.42
2018-12-14T04:32:40.033Z,100372.97
2018-12-14T04:33:15.752Z,100367.45
2018-12-14T04:33:50.435Z,100370.02
2018-12-14T04:34:25.035Z,100362.77
2018-12-14T04:34:59.678Z,100361.92
2018-12-14T04:35:34.416Z,100370.00
2018-12-14T04:36:09.191Z,100372.13
2018-12-14T04:36:44.002Z,100372.56
2018-12-14T04:37:18.634Z,100367.89
2018-12-14T04:37:53.249Z,100375.09
2018-12-14T04:38:27.861Z,100369.16
2018-12-14T04:39:03.015Z,100372.98
2018-12-14T04:39:37.730Z,100355.95
2018-12-14T04:40:12.774Z,100370.86
2018-12-14T04:40:47.743Z,100369.99
2018-12-14T04:41:22.333Z,100369.59
2018-12-14T04:41:56.945Z,100368.29
2018-12-14T04:42:31.889Z,100368.73
2018-12-14T04:43:06.992Z,100370.87
2018-12-14T04:43:41.663Z,100364.92
2018-12-14T04:44:16.493Z,100365.77
2018-12-14T04:44:51.141Z,100364.48
2018-12-14T04:45:25.748Z,100358.52
2018-12-14T04:46:00.346Z,100356.42
2018-12-14T04:46:34.946Z,100365.36
2018-12-14T04:47:10.557Z,100358.13
2018-12-14T04:47:45.162Z,100359.81
2018-12-14T04:48:19.827Z,100366.61
2018-12-14T04:48:54.453Z,100362.36
2018-12-14T04:49:29.405Z,100362.77
2018-12-14T04:50:04.902Z,100359.81
2018-12-14T04:50:39.601Z,100360.64
2018-12-14T04:51:14.282Z,100360.22
2018-12-14T04:51:48.934Z,100357.66
2018-12-14T04:52:23.529Z,100360.21
2018-12-14T04:52:58.210Z,100364.90
2018-12-14T04:53:32.800Z,100361.05
2018-12-14T04:54:07.472Z,100363.20
2018-12-14T04:54:42.250Z,100356.36
2018-12-14T04:55:17.000Z,100360.62
2018-12-14T04:55:51.623Z,100358.08
2018-12-14T04:56:26.751Z,100361.91
2018-12-14T04:57:01.356Z,100358.52
2018-12-14T04:57:36.012Z,100363.63
2018-12-14T04:58:11.294Z,100368.29
2018-12-14T04:58:46.324Z,100365.74
2018-12-14T04:59:20.948Z,100362.76
2018-12-14T04:59:55.533Z,100364.03
2018-12-14T05:00:30.878Z,100359.37
2018-12-14T05:01:05.490Z,100362.33
2018-12-14T05:01:40.378Z,100368.30
2018-12-14T05:02:15.031Z,100358.50
2018-12-14T05:02:49.678Z,100366.16
2018-12-14T05:03:24.289Z,100364.45
2018-12-14T05:03:58.936Z,100360.22
2018-12-14T05:04:33.540Z,100357.25
2018-12-14T05:05:08.657Z,100365.73
2018-12-14T05:05:43.402Z,100360.63
2018-12-14T05:06:18.568Z,100358.95
2018-12-14T05:06:53.177Z,100357.25
2018-12-14T05:07:27.788Z,100358.94
2018-12-14T05:08:02.396Z,100365.31
2018-12-14T05:08:37.008Z,100361.92
2018-12-14T05:09:11.704Z,100364.05
2018-12-14T05:09:46.393Z,100365.73
2018-12-14T05:10:21.018Z,100368.29
2018-12-14T05:10:55.983Z,100366.15
2018-12-14T05:11:30.598Z,100363.16
2018-12-14T05:12:05.593Z,100364.48
2018-12-14T05:12:40.313Z,100364.90
2018-12-14T05:13:15.026Z,100362.75
2018-12-14T05:13:49.649Z,100362.33
2018-12-14T05:14:24.592Z,100367.02
2018-12-14T05:14:59.244Z,100368.28
2018-12-14T05:15:34.493Z,100365.33
2018-12-14T05:16:09.145Z,100369.59
2018-12-14T05:16:45.351Z,100363.19
2018-12-14T05:17:20.814Z,100364.92
2018-12-14T05:17:55.470Z,100364.02
2018-12-14T05:18:30.073Z,100367.44
2018-12-14T05:19:04.699Z,100364.45
2018-12-14T05:19:39.352Z,100371.26
2018-12-14T05:20:14.052Z,100366.59
2018-12-14T05:20:49.010Z,100372.97
2018-12-14T05:21:23.686Z,100370.44
2018-12-14T05:21:58.644Z,100370.44
2018-12-14T05:22:34.058Z,100370.87
2018-12-14T05:23:08.717Z,100374.68
2018-12-14T05:23:43.408Z,100363.19
2018-12-14T05:24:18.088Z,100369.56
2018-12-14T05:24:52.701Z,100366.57
2018-12-14T05:25:27.338Z,100370.41
2018-12-14T05:26:01.964Z,100372.99
2018-12-14T05:26:36.558Z,100376.37
2018-12-14T05:27:11.715Z,100374.68
2018-12-14T05:27:46.424Z,100374.68
2018-12-14T05:28:21.040Z,100341.94
2018-12-14T05:28:55.637Z,100374.69
2018-12-14T05:29:30.302Z,100373.41
2018-12-14T05:30:06.909Z,100373.39
2018-12-14T05:30:41.588Z,100379.34
2018-12-14T05:31:16.371Z,100381.06
2018-12-14T05:31:51.134Z,100321.06
2018-12-14T05:32:25.734Z,100378.91
2018-12-14T05:33:00.387Z,100380.61
2018-12-14T05:33:35.074Z,100380.61
2018-12-14T05:34:09.801Z,100382.31
2018-12-14T05:34:44.458Z,100380.63
2018-12-14T05:35:19.105Z,100376.36
2018-12-14T05:35:53.716Z,100379.75
2018-12-14T05:36:28.883Z,100375.95
2018-12-14T05:37:03.580Z,100378.47
2018-12-14T05:37:38.215Z,100379.31
2018-12-14T05:38:13.084Z,100370.83
2018-12-14T05:38:47.719Z,100371.69
2018-12-14T05:39:22.341Z,100378.94
2018-12-14T05:39:56.964Z,100385.28
2018-12-14T05:40:31.751Z,100375.94
2018-12-14T05:41:06.662Z,100379.36
2018-12-14T05:41:41.465Z,100373.39
2018-12-14T05:42:16.154Z,100386.97
2018-12-14T05:42:50.885Z,100385.27
2018-12-14T05:43:25.564Z,100386.98
2018-12-14T05:44:00.190Z,100388.25
2018-12-14T05:44:34.780Z,100382.73
2018-12-14T05:45:09.566Z,100386.14
2018-12-14T05:45:44.358Z,100386.13
2018-12-14T05:46:19.169Z,100387.42
2018-12-14T05:46:53.768Z,100382.30
2018-12-14T05:47:28.386Z,100386.95
2018-12-14T05:48:03.021Z,100391.26
2018-12-14T05:48:37.690Z,100388.70
2018-12-14T05:49:12.833Z,100384.02
2018-12-14T05:49:47.496Z,100389.54
2018-12-14T05:50:22.106Z,100390.82
2018-12-14T05:50:57.178Z,100390.41
2018-12-14T05:51:31.781Z,100387.44
2018-12-14T05:52:06.372Z,100391.25
2018-12-14T05:52:41.238Z,100392.93
2018-12-14T05:53:15.924Z,100394.20
2018-12-14T05:53:50.503Z,100394.62
2018-12-14T05:54:25.126Z,100393.34
2018-12-14T05:55:00.197Z,100393.80
2018-12-14T05:55:34.891Z,100388.67
2018-12-14T05:56:09.542Z,100393.38
2018-12-14T05:56:44.568Z,100399.75
2018-12-14T05:57:19.277Z,100395.48
2018-12-14T05:57:54.134Z,100388.27
2018-12-14T05:58:28.704Z,100394.22
2018-12-14T05:59:03.278Z,100391.27
2018-12-14T05:59:37.974Z,100397.22
2018-12-14T06:00:13.559Z,100396.77
2018-12-14T06:00:48.248Z,100392.09
2018-12-14T06:01:23.039Z,100398.05
2018-12-14T06:01:57.790Z,100386.99
2018-12-14T06:02:32.405Z,100395.91
2018-12-14T06:03:07.058Z,100392.09
2018-12-14T06:03:42.244Z,100396.35
2018-12-14T06:04:16.886Z,100395.08
2018-12-14T06:04:51.494Z,100392.54
2018-12-14T06:05:26.098Z,100395.92
2018-12-14T06:06:01.163Z,100396.34
2018-12-14T06:06:36.253Z,100393.34
2018-12-14T06:07:11.036Z,100391.21
2018-12-14T06:07:45.716Z,100394.22
2018-12-14T06:08:20.353Z,100392.52
2018-12-14T06:08:54.945Z,100395.48
2018-12-14T06:09:29.597Z,100398.47
2018-12-14T06:10:05.573Z,100393.80
2018-12-14T06:10:40.329Z,100395.90
2018-12-14T06:11:14.983Z,100398.03
2018-12-14T06:11:49.660Z,100398.04
2018-12-14T06:12:24.547Z,100398.05
2018-12-14T06:12:59.193Z,100400.17
2018-12-14T06:13:33.808Z,100397.17
2018-12-14T06:14:08.466Z,100399.74
2018-12-14T06:14:43.114Z,100394.18
2018-12-14T06:15:18.130Z,100400.58
2018-12-14T06:15:52.781Z,100402.28
2018-12-14T06:16:27.860Z,100405.27
2018-12-14T06:17:02.442Z,100400.17
2018-12-14T06:17:37.060Z,100398.04
2018-12-14T06:18:11.803Z,100403.56
2018-12-14T06:18:46.491Z,100407.41
2018-12-14T06:19:21.079Z,100402.73
2018-12-14T06:19:55.720Z,100396.78
2018-12-14T06:20:30.324Z,100401.88
2018-12-14T06:21:05.337Z,100404.42
2018-12-14T06:21:39.994Z,100403.16
2018-12-14T06:22:14.715Z,100399.31
2018-12-14T06:22:49.325Z,100400.59
2018-12-14T06:23:23.963Z,100401.03
2018-12-14T06:23:58.782Z,100407.38
2018-12-14T06:24:33.376Z,100407.39
2018-12-14T06:25:08.463Z,100403.14
2018-12-14T06:25:43.398Z,100406.09
2018-12-14T06:26:18.258Z,100400.16
2018-12-14T06:26:52.909Z,100407.41
2018-12-14T06:27:27.505Z,100405.28
2018-12-14T06:28:02.136Z,100404.00
2018-12-14T06:28:36.790Z,100405.70
2018-12-14T06:29:11.436Z,100399.73
2018-12-14T06:29:46.189Z,100408.23
2018-12-14T06:30:20.806Z,100398.88
2018-12-14T06:30:55.467Z,100412.46
2018-12-14T06:31:30.075Z,100410.34
2018-12-14T06:32:05.573Z,100404.81
2018-12-14T06:32:40.346Z,100408.66
2018-12-14T06:33:15.019Z,100407.37
2018-12-14T06:33:49.686Z,100413.74
2018-12-14T06:34:24.253Z,100409.91
2018-12-14T06:34:58.869Z,100414.19
2018-12-14T06:35:33.485Z,100415.02
2018-12-14T06:36:08.091Z,100405.22
2018-12-14T06:36:42.809Z,100406.89
2018-12-14T06:37:17.829Z,100415.00
2018-12-14T06:37:52.426Z,100415.42